createdAt,value
2018-07-24T00:02:19.734Z,23.16
2018-07-24T00:06:23.481Z,23.13
2018-07-24T00:10:26.974Z,23.11
2018-07-24T00:14:32.733Z,23.07
2018-07-24T00:18:36.381Z,23.03
2018-07-24T00:22:39.920Z,22.98
2018-07-24T00:26:43.950Z,22.94
2018-07-24T00:30:47.439Z,22.92
2018-07-24T00:34:50.940Z,22.90
2018-07-24T00:38:54.516Z,22.86
2018-07-24T00:42:57.997Z,22.85
2018-07-24T00:47:04.725Z,22.82
2018-07-24T00:51:10.658Z,22.82
2018-07-24T00:55:15.149Z,22.82
2018-07-24T00:59:18.635Z,22.80
2018-07-24T01:03:22.161Z,22.78
2018-07-24T01:07:33.766Z,22.76
2018-07-24T01:11:37.266Z,22.74
2018-07-24T01:15:40.779Z,22.71
2018-07-24T01:19:45.150Z,22.68
2018-07-24T01:23:50.291Z,22.65
2018-07-24T01:28:01.766Z,22.63
2018-07-24T01:32:05.304Z,22.63
2018-07-24T01:36:08.811Z,22.61
2018-07-24T01:40:12.351Z,22.60
2018-07-24T01:44:15.869Z,22.58
2018-07-24T01:48:19.455Z,22.56
2018-07-24T01:52:22.962Z,22.54
2018-07-24T01:56:26.438Z,22.51
2018-07-24T02:00:29.900Z,22.48
2018-07-24T02:04:33.467Z,22.44
2018-07-24T02:08:36.932Z,22.43
2018-07-24T02:12:40.408Z,22.41
2018-07-24T02:16:43.941Z,22.37
2018-07-24T02:20:47.451Z,22.35
2018-07-24T02:24:50.932Z,22.33
2018-07-24T02:28:54.431Z,22.30
2018-07-24T02:32:57.963Z,22.27
2018-07-24T02:37:01.467Z,22.23
2018-07-24T02:41:05.002Z,22.21
2018-07-24T02:45:08.956Z,22.19
2018-07-24T02:49:12.637Z,22.18
2018-07-24T02:53:16.161Z,22.17
2018-07-24T02:57:20.540Z,22.14
2018-07-24T03:01:24.147Z,22.16
2018-07-24T03:05:27.653Z,22.12
2018-07-24T03:09:31.221Z,22.12
2018-07-24T03:13:35.749Z,22.10
2018-07-24T03:17:39.373Z,22.08
2018-07-24T03:21:42.872Z,22.06
2018-07-24T03:25:46.415Z,22.04
2018-07-24T03:29:49.914Z,22.04
2018-07-24T03:33:53.452Z,22.03
2018-07-24T03:37:56.922Z,21.99
2018-07-24T03:42:00.510Z,21.98
2018-07-24T03:46:04.004Z,21.96
2018-07-24T03:50:07.508Z,21.96
2018-07-24T03:54:11.001Z,21.97
2018-07-24T03:58:14.664Z,22.00
2018-07-24T04:02:18.267Z,22.03
2018-07-24T04:06:21.847Z,22.05
2018-07-24T04:10:25.367Z,22.06
2018-07-24T04:14:28.954Z,22.07
2018-07-24T04:18:39.806Z,22.08
2018-07-24T04:22:43.371Z,22.10
2018-07-24T04:26:46.903Z,22.11
2018-07-24T04:30:50.450Z,22.14
2018-07-24T04:34:53.902Z,22.14
2018-07-24T04:38:57.363Z,22.17
2018-07-24T04:43:00.869Z,22.18
2018-07-24T04:47:04.360Z,22.20
2018-07-24T04:51:07.847Z,22.24
2018-07-24T04:55:11.349Z,22.29
2018-07-24T04:59:14.932Z,22.34
2018-07-24T05:03:18.460Z,22.37
2018-07-24T05:07:21.973Z,22.44
2018-07-24T05:11:25.507Z,22.53
2018-07-24T05:15:28.978Z,22.60
2018-07-24T05:19:32.453Z,22.72
2018-07-24T05:23:35.965Z,22.83
2018-07-24T05:27:39.468Z,22.99
2018-07-24T05:31:42.962Z,23.15
2018-07-24T05:35:46.441Z,23.33
2018-07-24T05:39:49.933Z,23.52
2018-07-24T05:43:53.503Z,23.77
2018-07-24T05:47:57.116Z,23.99
2018-07-24T05:52:00.642Z,24.18
2018-07-24T05:56:04.196Z,24.37
2018-07-24T06:00:07.663Z,24.52
2018-07-24T06:04:11.236Z,24.63
2018-07-24T06:08:14.714Z,24.77
2018-07-24T06:12:18.178Z,24.97
2018-07-24T06:16:21.658Z,25.10
2018-07-24T06:20:25.145Z,25.21
2018-07-24T06:24:28.607Z,25.34
2018-07-24T06:28:32.056Z,25.40
2018-07-24T06:32:35.494Z,25.50
2018-07-24T06:36:39.434Z,25.67
2018-07-24T06:40:42.915Z,25.83
2018-07-24T06:44:46.440Z,26.04
2018-07-24T06:48:49.926Z,26.15
2018-07-24T06:52:53.451Z,26.18
2018-07-24T06:56:56.964Z,26.31
2018-07-24T07:01:00.483Z,26.39
2018-07-24T07:05:03.995Z,26.47
2018-07-24T07:09:08.734Z,26.51
2018-07-24T07:13:12.293Z,26.59
2018-07-24T07:17:15.840Z,26.79
2018-07-24T07:21:19.366Z,26.88
2018-07-24T07:25:22.854Z,26.99
2018-07-24T07:29:26.292Z,27.14
2018-07-24T07:33:29.753Z,27.28
2018-07-24T07:37:33.292Z,27.45
2018-07-24T07:41:36.800Z,27.50
2018-07-24T07:45:40.302Z,27.58
2018-07-24T07:49:43.830Z,27.67
2018-07-24T07:53:47.314Z,27.67
2018-07-24T07:57:50.806Z,27.81
2018-07-24T08:01:54.325Z,28.02
2018-07-24T08:05:57.835Z,28.17
2018-07-24T08:10:01.397Z,28.35
2018-07-24T08:14:04.968Z,28.32
2018-07-24T08:18:08.597Z,28.40
2018-07-24T08:22:12.171Z,28.49
2018-07-24T08:26:15.633Z,28.64
2018-07-24T08:30:19.195Z,28.73
2018-07-24T08:34:22.674Z,28.77
2018-07-24T08:38:26.199Z,28.77
2018-07-24T08:42:29.652Z,28.86
2018-07-24T08:46:33.144Z,28.90
2018-07-24T08:50:36.672Z,28.97
2018-07-24T08:54:40.476Z,29.05
2018-07-24T08:58:43.725Z,29.21
2018-07-24T09:02:47.221Z,29.32
2018-07-24T09:06:50.688Z,29.27
2018-07-24T09:10:54.314Z,29.21
2018-07-24T09:14:57.810Z,29.29
2018-07-24T09:19:01.344Z,29.36
2018-07-24T09:23:04.846Z,29.42
2018-07-24T09:27:08.414Z,29.53
2018-07-24T09:31:11.890Z,29.56
2018-07-24T09:35:15.456Z,29.53
2018-07-24T09:39:18.945Z,29.56
2018-07-24T09:43:22.426Z,29.64
2018-07-24T09:47:25.919Z,29.61
2018-07-24T09:51:29.457Z,29.58
2018-07-24T09:55:32.910Z,29.71
2018-07-24T09:59:36.439Z,29.78
2018-07-24T10:03:39.903Z,29.85
2018-07-24T10:07:43.365Z,30.02
2018-07-24T10:11:46.803Z,30.19
2018-07-24T10:15:50.288Z,30.19
2018-07-24T10:19:53.725Z,30.25
2018-07-24T10:23:57.208Z,30.39
2018-07-24T10:28:00.703Z,30.45
2018-07-24T10:32:04.190Z,30.47
2018-07-24T10:36:07.674Z,30.63
2018-07-24T10:40:11.146Z,30.53
2018-07-24T10:44:14.603Z,30.43
2018-07-24T10:48:18.068Z,30.37
2018-07-24T10:52:21.565Z,30.41
2018-07-24T10:56:25.069Z,30.47
2018-07-24T11:00:28.533Z,30.53
2018-07-24T11:04:32.024Z,30.65
2018-07-24T11:08:35.515Z,30.77
2018-07-24T11:12:38.982Z,30.81
2018-07-24T11:16:42.587Z,30.99
2018-07-24T11:20:46.187Z,31.12
2018-07-24T11:24:49.729Z,31.10
2018-07-24T11:28:53.250Z,30.98
2018-07-24T11:32:56.809Z,30.79
2018-07-24T11:37:00.254Z,30.76
2018-07-24T11:41:03.830Z,30.89
2018-07-24T11:45:07.693Z,30.96
2018-07-24T11:49:11.140Z,30.87
2018-07-24T11:53:14.620Z,30.88
2018-07-24T11:57:18.144Z,30.99
2018-07-24T12:01:21.856Z,31.21
2018-07-24T12:05:26.043Z,31.29
2018-07-24T12:09:29.662Z,31.15
2018-07-24T12:13:33.205Z,30.87
2018-07-24T12:17:36.686Z,30.67
2018-07-24T12:21:40.145Z,30.68
2018-07-24T12:25:43.629Z,30.74
2018-07-24T12:29:47.158Z,30.88
2018-07-24T12:33:50.682Z,30.92
2018-07-24T12:37:54.172Z,30.84
2018-07-24T12:41:57.646Z,30.97
2018-07-24T12:46:01.145Z,31.06
2018-07-24T12:50:04.741Z,31.06
2018-07-24T12:54:08.330Z,31.13
2018-07-24T12:58:12.100Z,31.27
2018-07-24T13:02:15.925Z,31.31
2018-07-24T13:06:19.715Z,31.40
2018-07-24T13:10:23.685Z,31.39
2018-07-24T13:14:27.421Z,31.46
2018-07-24T13:18:31.099Z,31.46
2018-07-24T13:22:34.780Z,31.42
2018-07-24T13:26:38.452Z,31.49
2018-07-24T13:30:41.981Z,31.49
2018-07-24T13:34:45.781Z,31.51
2018-07-24T13:38:49.518Z,31.43
2018-07-24T13:42:53.066Z,31.49
2018-07-24T13:46:56.768Z,31.51
2018-07-24T13:51:00.346Z,31.34
2018-07-24T13:55:03.899Z,31.26
2018-07-24T13:59:07.446Z,31.16
2018-07-24T14:03:12.118Z,31.20
2018-07-24T14:07:15.627Z,31.28
2018-07-24T14:11:19.436Z,31.40
2018-07-24T14:15:23.314Z,31.40
2018-07-24T14:19:26.896Z,31.38
2018-07-24T14:23:30.438Z,31.30
2018-07-24T14:27:34.155Z,31.22
2018-07-24T14:31:38.300Z,31.23
2018-07-24T14:35:41.780Z,31.25
2018-07-24T14:39:45.343Z,31.26
2018-07-24T14:43:49.275Z,31.27
2018-07-24T14:47:53.028Z,31.33
2018-07-24T14:51:56.694Z,31.35
2018-07-24T14:56:00.566Z,31.35
2018-07-24T15:00:04.855Z,31.39
2018-07-24T15:04:09.124Z,31.33
2018-07-24T15:08:13.467Z,31.27
2018-07-24T15:12:17.017Z,31.23
2018-07-24T15:16:20.560Z,31.15
2018-07-24T15:20:24.014Z,31.11
2018-07-24T15:24:27.552Z,31.08
2018-07-24T15:28:31.079Z,31.06
2018-07-24T15:32:34.530Z,31.00
2018-07-24T15:36:38.078Z,30.98
2018-07-24T15:40:41.580Z,30.93
2018-07-24T15:44:45.090Z,30.86
2018-07-24T15:48:48.603Z,30.81
2018-07-24T15:52:52.103Z,30.75
2018-07-24T15:56:55.595Z,30.69
2018-07-24T16:00:59.108Z,30.65
2018-07-24T16:05:02.683Z,30.60
2018-07-24T16:09:09.534Z,30.55
2018-07-24T16:13:13.009Z,30.51
2018-07-24T16:17:16.498Z,30.52
2018-07-24T16:21:20.146Z,30.51
2018-07-24T16:25:23.544Z,30.48
2018-07-24T16:29:27.199Z,30.46
2018-07-24T16:33:30.724Z,30.43
2018-07-24T16:37:34.447Z,30.36
2018-07-24T16:41:38.088Z,30.31
2018-07-24T16:45:41.631Z,30.27
2018-07-24T16:49:45.108Z,30.21
2018-07-24T16:53:48.634Z,30.17
2018-07-24T16:57:52.122Z,30.15
2018-07-24T17:01:55.562Z,30.12
2018-07-24T17:05:59.053Z,30.08
2018-07-24T17:10:03.301Z,30.03
2018-07-24T17:14:06.816Z,30.01
2018-07-24T17:18:10.314Z,29.95
2018-07-24T17:22:13.792Z,29.92
2018-07-24T17:26:17.354Z,29.88
2018-07-24T17:30:20.801Z,29.83
2018-07-24T17:34:24.373Z,29.78
2018-07-24T17:38:27.973Z,29.74
2018-07-24T17:42:31.528Z,29.71
2018-07-24T17:46:35.139Z,29.65
2018-07-24T17:50:38.704Z,29.59
2018-07-24T17:54:42.242Z,29.52
2018-07-24T17:58:45.766Z,29.47
2018-07-24T18:02:49.346Z,29.43
2018-07-24T18:06:52.817Z,29.40
2018-07-24T18:10:56.311Z,29.35
2018-07-24T18:14:59.816Z,29.29
2018-07-24T18:19:03.379Z,29.25
2018-07-24T18:23:07.951Z,29.21
2018-07-24T18:27:11.469Z,29.17
2018-07-24T18:31:14.997Z,29.13
2018-07-24T18:35:18.548Z,29.10
2018-07-24T18:39:22.079Z,29.07
2018-07-24T18:43:25.670Z,29.05
2018-07-24T18:47:29.204Z,29.01
2018-07-24T18:51:32.759Z,28.97
2018-07-24T18:55:36.260Z,28.91
2018-07-24T18:59:39.793Z,28.87
2018-07-24T19:03:43.355Z,28.85
2018-07-24T19:07:46.827Z,28.82
2018-07-24T19:11:50.330Z,28.78
2018-07-24T19:15:53.929Z,28.73
2018-07-24T19:19:57.405Z,28.68
2018-07-24T19:24:00.918Z,28.63
2018-07-24T19:28:04.417Z,28.55
2018-07-24T19:32:07.968Z,28.48
2018-07-24T19:36:11.526Z,28.44
2018-07-24T19:40:14.998Z,28.41
2018-07-24T19:44:18.484Z,28.32
2018-07-24T19:48:21.991Z,28.21
2018-07-24T19:52:25.485Z,28.14
2018-07-24T19:56:28.970Z,28.11
2018-07-24T20:00:32.467Z,28.04
2018-07-24T20:04:36.311Z,28.00
2018-07-24T20:08:39.750Z,27.98
2018-07-24T20:12:43.266Z,27.97
2018-07-24T20:16:46.818Z,27.95
2018-07-24T20:20:50.371Z,27.94
2018-07-24T20:24:53.831Z,27.95
2018-07-24T20:28:57.376Z,27.89
2018-07-24T20:33:00.898Z,27.83
2018-07-24T20:37:04.374Z,27.78
2018-07-24T20:41:07.883Z,27.75
2018-07-24T20:45:11.354Z,27.71
2018-07-24T20:49:14.851Z,27.66
2018-07-24T20:53:18.862Z,27.60
2018-07-24T20:57:22.400Z,27.56
2018-07-24T21:01:26.039Z,27.54
2018-07-24T21:05:29.644Z,27.47
2018-07-24T21:09:33.292Z,27.38
2018-07-24T21:13:37.480Z,27.35
2018-07-24T21:17:42.214Z,27.31
2018-07-24T21:21:47.462Z,27.28
2018-07-24T21:25:52.007Z,27.21
2018-07-24T21:29:56.388Z,27.13
2018-07-24T21:34:00.626Z,27.06
2018-07-24T21:38:04.831Z,27.00
2018-07-24T21:42:09.200Z,26.94
2018-07-24T21:46:13.395Z,26.86
2018-07-24T21:50:17.807Z,26.79
2018-07-24T21:54:22.035Z,26.73
2018-07-24T21:58:26.177Z,26.66
2018-07-24T22:02:30.591Z,26.56
2018-07-24T22:06:34.989Z,26.50
2018-07-24T22:10:39.422Z,26.42
2018-07-24T22:14:43.754Z,26.35
2018-07-24T22:18:48.021Z,26.25
2018-07-24T22:22:53.731Z,26.18
2018-07-24T22:26:58.687Z,26.11
2018-07-24T22:31:02.892Z,26.02
2018-07-24T22:35:07.615Z,25.97
2018-07-24T22:39:12.851Z,25.90
2018-07-24T22:43:17.190Z,25.84
2018-07-24T22:47:21.699Z,25.78
2018-07-24T22:51:25.771Z,25.71
2018-07-24T22:55:29.886Z,25.65
2018-07-24T22:59:34.071Z,25.54
2018-07-24T23:03:38.314Z,25.47
2018-07-24T23:07:42.371Z,25.40
2018-07-24T23:11:46.576Z,25.32
2018-07-24T23:15:50.770Z,25.24
2018-07-24T23:19:55.044Z,25.15
2018-07-24T23:24:02.392Z,25.08
2018-07-24T23:28:06.774Z,25.02
2018-07-24T23:32:11.100Z,24.94
2018-07-24T23:36:15.138Z,24.86
2018-07-24T23:40:19.864Z,24.79
2018-07-24T23:44:23.853Z,24.72
2018-07-24T23:48:27.850Z,24.67
2018-07-24T23:52:32.031Z,24.61
2018-07-24T23:56:36.230Z,24.55
